createdAt,value
2023-02-02T00:02:01.086Z,8.50
2023-02-02T00:04:34.426Z,8.40
2023-02-02T00:07:02.026Z,8.40
2023-02-02T00:09:30.826Z,8.40
2023-02-02T00:11:58.945Z,8.40
2023-02-02T00:14:25.907Z,8.40
2023-02-02T00:16:56.752Z,8.40
2023-02-02T00:19:30.441Z,8.40
2023-02-02T00:21:57.516Z,8.40
2023-02-02T00:24:24.864Z,8.40
2023-02-02T00:26:54.310Z,8.40
2023-02-02T00:29:27.611Z,8.40
2023-02-02T00:31:54.719Z,8.50
2023-02-02T00:34:22.150Z,8.40
2023-02-02T00:36:49.696Z,8.40
2023-02-02T00:39:20.798Z,8.40
2023-02-02T00:41:48.210Z,8.40
2023-02-02T00:44:33.789Z,8.40
2023-02-02T00:47:00.542Z,8.40
2023-02-02T00:49:27.304Z,8.40
2023-02-02T00:51:54.049Z,8.40
2023-02-02T00:54:20.832Z,8.40
2023-02-02T00:56:47.741Z,8.40
2023-02-02T00:59:14.365Z,8.40
2023-02-02T01:01:41.084Z,8.40
2023-02-02T01:04:07.937Z,8.40
2023-02-02T01:06:34.686Z,8.40
2023-02-02T01:09:01.439Z,8.40
2023-02-02T01:11:28.089Z,8.40
2023-02-02T01:13:54.716Z,8.40
2023-02-02T01:16:22.611Z,8.40
2023-02-02T01:18:50.382Z,8.40
2023-02-02T01:21:17.612Z,8.40
2023-02-02T01:23:44.306Z,8.40
2023-02-02T01:26:12.466Z,8.40
2023-02-02T01:28:39.877Z,8.40
2023-02-02T01:31:10.260Z,8.40
2023-02-02T01:33:37.287Z,8.40
2023-02-02T01:36:11.113Z,8.40
2023-02-02T01:38:37.826Z,8.40
2023-02-02T01:41:05.184Z,8.40
2023-02-02T01:43:55.123Z,8.40
2023-02-02T01:46:33.298Z,8.40
2023-02-02T01:49:02.332Z,8.30
2023-02-02T01:51:56.520Z,8.30
2023-02-02T01:54:35.143Z,8.30
2023-02-02T01:57:19.127Z,8.30
2023-02-02T01:59:47.985Z,8.30
2023-02-02T02:02:14.939Z,8.30
2023-02-02T02:04:42.610Z,8.30
2023-02-02T02:07:09.759Z,8.30
2023-02-02T02:09:36.770Z,8.30
2023-02-02T02:12:03.558Z,8.30
2023-02-02T02:14:48.958Z,8.30
2023-02-02T02:17:54.739Z,8.30
2023-02-02T02:21:14.068Z,8.30
2023-02-02T02:24:27.368Z,8.30
2023-02-02T02:27:33.730Z,8.30
2023-02-02T02:30:30.772Z,8.20
2023-02-02T02:33:06.865Z,8.30
2023-02-02T02:35:39.680Z,8.20
2023-02-02T02:38:24.553Z,8.30
2023-02-02T02:41:01.681Z,8.30
2023-02-02T02:43:33.554Z,8.30
2023-02-02T02:46:00.794Z,8.20
2023-02-02T02:48:29.377Z,8.20
2023-02-02T02:51:09.517Z,8.30
2023-02-02T02:53:37.662Z,8.20
2023-02-02T02:56:23.952Z,8.20
2023-02-02T02:59:13.406Z,8.20
2023-02-02T03:01:57.424Z,8.20
2023-02-02T03:04:47.773Z,8.20
2023-02-02T03:07:24.013Z,8.20
2023-02-02T03:09:53.171Z,8.20
2023-02-02T03:12:19.775Z,8.20
2023-02-02T03:14:46.411Z,8.20
2023-02-02T03:17:13.079Z,8.20
2023-02-02T03:19:39.747Z,8.20
2023-02-02T03:22:06.305Z,8.20
2023-02-02T03:24:32.917Z,8.10
2023-02-02T03:26:59.557Z,8.20
2023-02-02T03:29:26.302Z,8.20
2023-02-02T03:31:52.914Z,8.20
2023-02-02T03:34:19.609Z,8.10
2023-02-02T03:36:46.204Z,8.20
2023-02-02T03:39:12.847Z,8.20
2023-02-02T03:41:39.503Z,8.20
2023-02-02T03:44:06.170Z,8.10
2023-02-02T03:46:32.877Z,8.10
2023-02-02T03:48:59.547Z,8.10
2023-02-02T03:51:26.143Z,8.20
2023-02-02T03:53:52.749Z,8.20
2023-02-02T03:56:19.658Z,8.20
2023-02-02T03:58:47.292Z,8.20
2023-02-02T04:01:14.954Z,8.20
2023-02-02T04:03:42.058Z,8.20
2023-02-02T04:06:09.512Z,8.20
2023-02-02T04:08:36.270Z,8.20
2023-02-02T04:11:02.897Z,8.20
2023-02-02T04:13:29.601Z,8.20
2023-02-02T04:16:00.244Z,8.20
2023-02-02T04:18:27.621Z,8.20
2023-02-02T04:20:59.331Z,8.20
2023-02-02T04:23:26.273Z,8.20
2023-02-02T04:25:53.175Z,8.10
2023-02-02T04:28:20.778Z,8.10
2023-02-02T04:30:47.504Z,8.20
2023-02-02T04:33:14.104Z,8.20
2023-02-02T04:35:40.727Z,8.20
2023-02-02T04:38:07.385Z,8.20
2023-02-02T04:40:34.068Z,8.20
2023-02-02T04:43:00.697Z,8.20
2023-02-02T04:45:27.664Z,8.20
2023-02-02T04:47:54.501Z,8.20
2023-02-02T04:50:21.114Z,8.20
2023-02-02T04:52:47.709Z,8.20
2023-02-02T04:55:14.410Z,8.20
2023-02-02T04:57:41.203Z,8.20
2023-02-02T05:00:08.603Z,8.20
2023-02-02T05:02:39.745Z,8.20
2023-02-02T05:05:09.597Z,8.20
2023-02-02T05:07:36.409Z,8.20
2023-02-02T05:10:04.825Z,8.20
2023-02-02T05:12:31.436Z,8.20
2023-02-02T05:15:01.038Z,8.20
2023-02-02T05:17:28.067Z,8.20
2023-02-02T05:19:54.679Z,8.20
2023-02-02T05:22:21.352Z,8.20
2023-02-02T05:24:48.048Z,8.20
2023-02-02T05:27:14.699Z,8.20
2023-02-02T05:29:41.330Z,8.20
2023-02-02T05:32:07.991Z,8.20
2023-02-02T05:34:34.713Z,8.10
2023-02-02T05:37:01.315Z,8.20
2023-02-02T05:39:30.453Z,8.20
2023-02-02T05:41:57.149Z,8.20
2023-02-02T05:44:23.989Z,8.20
2023-02-02T05:46:50.585Z,8.10
2023-02-02T05:49:17.252Z,8.10
2023-02-02T05:51:47.537Z,8.10
2023-02-02T05:54:19.387Z,8.10
2023-02-02T05:56:50.796Z,8.10
2023-02-02T05:59:18.599Z,8.10
2023-02-02T06:01:46.456Z,8.10
2023-02-02T06:04:13.588Z,8.10
2023-02-02T06:06:40.547Z,8.10
2023-02-02T06:09:07.669Z,8.10
2023-02-02T06:11:34.886Z,8.10
2023-02-02T06:14:01.623Z,8.10
2023-02-02T06:16:28.226Z,8.10
2023-02-02T06:18:54.930Z,8.10
2023-02-02T06:21:24.352Z,8.10
2023-02-02T06:23:54.097Z,8.10
2023-02-02T06:26:20.717Z,8.10
2023-02-02T06:28:53.040Z,8.10
2023-02-02T06:31:20.327Z,8.10
2023-02-02T06:33:48.339Z,8.10
2023-02-02T06:36:15.148Z,8.10
2023-02-02T06:38:41.778Z,8.10
2023-02-02T06:41:08.491Z,8.10
2023-02-02T06:43:35.144Z,8.00
2023-02-02T06:46:01.946Z,8.10
2023-02-02T06:48:28.688Z,8.10
2023-02-02T06:50:59.603Z,8.10
2023-02-02T06:53:27.094Z,8.10
2023-02-02T06:55:58.390Z,8.10
2023-02-02T06:58:25.103Z,8.10
2023-02-02T07:00:51.820Z,8.10
2023-02-02T07:03:21.480Z,8.00
2023-02-02T07:05:50.982Z,8.00
2023-02-02T07:08:17.873Z,8.00
2023-02-02T07:11:09.440Z,8.00
2023-02-02T07:13:31.341Z,8.00
2023-02-02T07:15:58.338Z,8.00
2023-02-02T07:18:25.249Z,7.90
2023-02-02T07:20:51.987Z,8.00
2023-02-02T07:23:18.575Z,8.00
2023-02-02T07:25:45.219Z,8.00
2023-02-02T07:28:11.841Z,7.90
2023-02-02T07:30:38.530Z,8.00
2023-02-02T07:33:05.201Z,8.00
2023-02-02T07:35:31.849Z,7.90
2023-02-02T07:37:58.518Z,7.90
2023-02-02T07:40:25.081Z,7.90
2023-02-02T07:42:51.901Z,8.00
2023-02-02T07:45:35.821Z,8.00
2023-02-02T07:48:03.193Z,8.00
2023-02-02T07:50:31.137Z,8.00
2023-02-02T07:52:59.798Z,8.00
2023-02-02T07:55:26.821Z,8.00
2023-02-02T07:57:55.472Z,8.00
2023-02-02T08:00:23.126Z,8.00
2023-02-02T08:02:49.947Z,8.00
2023-02-02T08:05:16.849Z,8.00
2023-02-02T08:07:44.753Z,8.00
2023-02-02T08:10:11.747Z,8.10
2023-02-02T08:12:38.391Z,8.10
2023-02-02T08:15:05.302Z,8.10
2023-02-02T08:17:32.012Z,8.10
2023-02-02T08:19:58.598Z,8.10
2023-02-02T08:22:25.247Z,8.10
2023-02-02T08:24:51.931Z,8.20
2023-02-02T08:27:18.563Z,8.10
2023-02-02T08:29:46.098Z,8.20
2023-02-02T08:32:12.757Z,8.20
2023-02-02T08:34:40.948Z,8.10
2023-02-02T08:37:07.937Z,8.20
2023-02-02T08:39:34.560Z,8.30
2023-02-02T08:42:01.502Z,8.30
2023-02-02T08:45:00.264Z,8.30
2023-02-02T08:47:14.926Z,8.40
2023-02-02T08:49:42.520Z,8.40
2023-02-02T08:52:09.461Z,8.40
2023-02-02T08:54:36.085Z,8.50
2023-02-02T08:57:02.712Z,8.50
2023-02-02T08:59:29.344Z,8.50
2023-02-02T09:01:56.673Z,8.50
2023-02-02T09:04:23.437Z,8.60
2023-02-02T09:06:50.107Z,8.60
2023-02-02T09:09:17.289Z,8.70
2023-02-02T09:11:44.287Z,8.70
2023-02-02T09:14:13.047Z,8.80
2023-02-02T09:16:40.154Z,8.70
2023-02-02T09:19:07.025Z,8.70
2023-02-02T09:21:37.393Z,8.70
2023-02-02T09:24:12.680Z,8.80
2023-02-02T09:26:40.624Z,8.80
2023-02-02T09:29:11.266Z,8.90
2023-02-02T09:31:38.713Z,8.90
2023-02-02T09:34:07.605Z,8.90
2023-02-02T09:36:34.297Z,8.90
2023-02-02T09:39:01.350Z,9.00
2023-02-02T09:41:36.855Z,9.00
2023-02-02T09:44:34.302Z,9.10
2023-02-02T09:47:06.900Z,9.10
2023-02-02T09:49:58.374Z,9.20
2023-02-02T09:52:27.827Z,9.20
2023-02-02T09:55:38.169Z,9.20
2023-02-02T09:58:22.067Z,9.20
2023-02-02T10:01:00.358Z,9.30
2023-02-02T10:03:35.888Z,9.30
2023-02-02T10:06:14.409Z,9.30
2023-02-02T10:08:54.088Z,9.40
2023-02-02T10:11:39.331Z,9.30
2023-02-02T10:14:25.435Z,9.40
2023-02-02T10:16:55.109Z,9.50
2023-02-02T10:19:29.089Z,9.50
2023-02-02T10:22:19.607Z,9.70
2023-02-02T10:24:46.312Z,9.70
2023-02-02T10:27:16.094Z,9.70
2023-02-02T10:30:01.834Z,9.70
2023-02-02T10:32:35.336Z,9.70
2023-02-02T10:35:26.153Z,9.80
2023-02-02T10:38:13.872Z,9.90
2023-02-02T10:41:07.915Z,10.10
2023-02-02T10:43:54.864Z,10.10
2023-02-02T10:46:49.566Z,10.20
2023-02-02T10:49:36.450Z,10.30
2023-02-02T10:52:17.021Z,10.40
2023-02-02T10:54:58.432Z,10.30
2023-02-02T10:57:34.797Z,10.40
2023-02-02T11:00:15.114Z,10.50
2023-02-02T11:02:41.869Z,10.70
2023-02-02T11:05:34.549Z,10.60
2023-02-02T11:08:01.547Z,10.60
2023-02-02T11:10:28.569Z,10.80
2023-02-02T11:12:57.831Z,10.90
2023-02-02T11:15:28.213Z,10.90
2023-02-02T11:17:55.011Z,10.90
2023-02-02T11:20:32.980Z,11.00
2023-02-02T11:23:02.105Z,11.00
2023-02-02T11:25:38.207Z,11.00
2023-02-02T11:28:18.959Z,11.10
2023-02-02T11:30:52.630Z,11.10
2023-02-02T11:33:25.397Z,11.00
2023-02-02T11:36:03.644Z,11.00
2023-02-02T11:38:30.650Z,11.00
2023-02-02T11:41:11.108Z,10.90
2023-02-02T11:43:47.686Z,11.00
2023-02-02T11:46:22.321Z,11.10
2023-02-02T11:48:58.279Z,11.00
2023-02-02T11:51:27.225Z,11.00
2023-02-02T11:54:14.760Z,11.00
2023-02-02T11:56:42.035Z,11.00
2023-02-02T11:59:28.939Z,10.90
2023-02-02T12:02:31.174Z,11.00
2023-02-02T12:05:10.091Z,11.00
2023-02-02T12:07:37.649Z,11.00
2023-02-02T12:10:25.962Z,11.00
2023-02-02T12:13:29.701Z,11.10
2023-02-02T12:16:08.664Z,11.00
2023-02-02T12:18:35.603Z,11.20
2023-02-02T12:21:05.974Z,11.20
2023-02-02T12:23:44.584Z,11.10
2023-02-02T12:26:31.836Z,11.00
2023-02-02T12:29:23.109Z,11.20
2023-02-02T12:32:15.841Z,11.20
2023-02-02T12:35:21.711Z,11.20
2023-02-02T12:37:54.375Z,11.20
2023-02-02T12:40:48.584Z,11.30
2023-02-02T12:43:21.228Z,11.40
2023-02-02T12:45:55.282Z,11.20
2023-02-02T12:48:40.245Z,11.20
2023-02-02T12:51:25.599Z,11.20
2023-02-02T12:54:33.648Z,11.30
2023-02-02T12:57:21.315Z,11.20
2023-02-02T13:00:17.581Z,11.10
2023-02-02T13:03:03.547Z,11.10
2023-02-02T13:05:30.207Z,11.10
2023-02-02T13:08:06.895Z,11.20
2023-02-02T13:10:44.463Z,11.20
2023-02-02T13:13:23.828Z,11.20
2023-02-02T13:16:04.526Z,11.20
2023-02-02T13:19:04.440Z,11.10
2023-02-02T13:21:32.274Z,11.20
2023-02-02T13:24:05.011Z,11.20
2023-02-02T13:26:38.971Z,11.10
2023-02-02T13:29:14.317Z,11.20
2023-02-02T13:31:58.184Z,11.20
2023-02-02T13:34:52.579Z,11.10
2023-02-02T13:37:39.588Z,11.20
2023-02-02T13:40:34.508Z,11.20
2023-02-02T13:43:13.639Z,11.20
2023-02-02T13:45:48.933Z,11.10
2023-02-02T13:48:28.435Z,11.10
2023-02-02T13:51:23.278Z,11.10
2023-02-02T13:54:16.388Z,11.10
2023-02-02T13:57:07.658Z,11.10
2023-02-02T14:00:18.366Z,11.00
2023-02-02T14:02:55.423Z,11.10
2023-02-02T14:05:27.744Z,11.10
2023-02-02T14:08:00.559Z,11.20
2023-02-02T14:10:32.066Z,11.20
2023-02-02T14:13:06.753Z,11.20
2023-02-02T14:15:43.377Z,11.20
2023-02-02T14:18:09.996Z,11.20
2023-02-02T14:20:49.655Z,11.20
2023-02-02T14:23:53.890Z,11.30
2023-02-02T14:26:42.524Z,11.10
2023-02-02T14:29:33.595Z,11.10
2023-02-02T14:32:28.689Z,11.00
2023-02-02T14:35:24.692Z,11.10
2023-02-02T14:38:09.273Z,11.20
2023-02-02T14:40:51.866Z,11.10
2023-02-02T14:43:49.787Z,11.10
2023-02-02T14:46:23.735Z,11.20
2023-02-02T14:48:53.180Z,11.20
2023-02-02T14:51:24.058Z,11.20
2023-02-02T14:54:00.940Z,11.20
2023-02-02T14:56:50.135Z,11.10
2023-02-02T14:59:22.079Z,11.10
2023-02-02T15:02:07.544Z,11.20
2023-02-02T15:04:34.255Z,11.20
2023-02-02T15:07:23.618Z,11.20
2023-02-02T15:09:51.207Z,11.10
2023-02-02T15:12:22.543Z,11.10
2023-02-02T15:14:53.444Z,11.00
2023-02-02T15:17:24.259Z,11.00
2023-02-02T15:19:58.879Z,11.00
2023-02-02T15:22:26.797Z,11.00
2023-02-02T15:24:54.515Z,11.00
2023-02-02T15:27:25.175Z,10.90
2023-02-02T15:29:58.432Z,10.90
2023-02-02T15:32:28.434Z,10.90
2023-02-02T15:34:59.359Z,10.90
2023-02-02T15:37:40.389Z,10.90
2023-02-02T15:40:16.336Z,10.90
2023-02-02T15:42:53.475Z,10.90
2023-02-02T15:45:35.746Z,10.90
2023-02-02T15:48:16.460Z,10.90
2023-02-02T15:50:48.435Z,10.80
2023-02-02T15:53:20.484Z,10.90
2023-02-02T15:55:47.465Z,10.90
2023-02-02T15:58:27.723Z,10.80
2023-02-02T16:01:00.755Z,10.80
2023-02-02T16:03:38.432Z,10.90
2023-02-02T16:06:07.708Z,11.00
2023-02-02T16:08:37.888Z,11.00
2023-02-02T16:11:13.296Z,11.00
2023-02-02T16:13:42.025Z,11.00
2023-02-02T16:16:24.096Z,10.90
2023-02-02T16:19:08.583Z,10.90
2023-02-02T16:21:47.910Z,10.80
2023-02-02T16:24:21.005Z,10.80
2023-02-02T16:26:49.522Z,10.80
2023-02-02T16:29:18.547Z,10.80
2023-02-02T16:31:47.731Z,10.80
2023-02-02T16:34:39.091Z,10.70
2023-02-02T16:37:28.102Z,10.70
2023-02-02T16:40:16.361Z,10.70
2023-02-02T16:42:43.076Z,10.60
2023-02-02T16:45:40.540Z,10.60
2023-02-02T16:48:27.617Z,10.60
2023-02-02T16:51:25.748Z,10.50
2023-02-02T16:54:21.585Z,10.50
2023-02-02T16:56:51.500Z,10.50
2023-02-02T16:59:38.577Z,10.50
2023-02-02T17:02:24.481Z,10.50
2023-02-02T17:05:01.144Z,10.50
2023-02-02T17:07:29.336Z,10.40
2023-02-02T17:10:18.765Z,10.40
2023-02-02T17:12:46.091Z,10.40
2023-02-02T17:15:18.792Z,10.30
2023-02-02T17:17:49.220Z,10.20
2023-02-02T17:20:18.707Z,10.20
2023-02-02T17:22:48.487Z,10.20
2023-02-02T17:25:37.128Z,10.20
2023-02-02T17:28:07.730Z,10.10
2023-02-02T17:30:34.697Z,10.10
2023-02-02T17:33:01.357Z,10.10
2023-02-02T17:35:34.751Z,10.20
2023-02-02T17:38:06.780Z,10.20
2023-02-02T17:40:33.890Z,10.10
2023-02-02T17:43:00.659Z,10.10
2023-02-02T17:45:34.125Z,10.00
2023-02-02T17:48:01.777Z,10.00
2023-02-02T17:50:29.671Z,10.00
2023-02-02T17:52:56.896Z,9.90
2023-02-02T17:55:37.833Z,10.00
2023-02-02T17:58:04.477Z,10.00
2023-02-02T18:00:31.719Z,10.00
2023-02-02T18:03:20.971Z,9.90
2023-02-02T18:05:47.787Z,9.80
2023-02-02T18:08:14.865Z,9.90
2023-02-02T18:10:42.730Z,9.90
2023-02-02T18:13:16.926Z,9.90
2023-02-02T18:15:44.086Z,9.90
2023-02-02T18:18:14.049Z,9.90
2023-02-02T18:20:44.652Z,9.90
2023-02-02T18:23:11.886Z,9.90
2023-02-02T18:25:39.564Z,9.90
2023-02-02T18:28:10.803Z,9.80
2023-02-02T18:30:41.116Z,9.90
2023-02-02T18:33:11.843Z,9.80
2023-02-02T18:35:42.632Z,9.80
2023-02-02T18:38:09.737Z,9.80
2023-02-02T18:40:36.435Z,9.80
2023-02-02T18:43:03.025Z,9.80
2023-02-02T18:45:30.000Z,9.80
2023-02-02T18:47:57.020Z,9.70
2023-02-02T18:50:24.366Z,9.80
2023-02-02T18:52:51.133Z,9.70
2023-02-02T18:55:17.749Z,9.70
2023-02-02T18:57:44.548Z,9.60
2023-02-02T19:00:11.956Z,9.70
2023-02-02T19:02:38.792Z,9.70
2023-02-02T19:05:24.393Z,9.70
2023-02-02T19:07:58.114Z,9.70
2023-02-02T19:10:27.295Z,9.70
2023-02-02T19:13:17.971Z,9.70
2023-02-02T19:15:46.081Z,9.70
2023-02-02T19:18:18.269Z,9.70
2023-02-02T19:20:46.248Z,9.60
2023-02-02T19:23:23.186Z,9.50
2023-02-02T19:25:52.284Z,9.50
2023-02-02T19:28:30.723Z,9.60
2023-02-02T19:31:00.583Z,9.60
2023-02-02T19:34:01.168Z,9.60
2023-02-02T19:36:30.908Z,9.60
2023-02-02T19:39:13.100Z,9.70
2023-02-02T19:41:42.434Z,9.60
2023-02-02T19:44:19.565Z,9.50
2023-02-02T19:46:50.351Z,9.60
2023-02-02T19:49:26.113Z,9.60
2023-02-02T19:51:55.322Z,9.60
2023-02-02T19:54:39.266Z,9.60
2023-02-02T19:57:17.733Z,9.60
2023-02-02T19:59:47.283Z,9.60
2023-02-02T20:02:32.297Z,9.50
2023-02-02T20:05:25.187Z,9.40
2023-02-02T20:08:05.924Z,9.50
2023-02-02T20:10:42.517Z,9.40
2023-02-02T20:13:19.971Z,9.40
2023-02-02T20:15:47.268Z,9.40
2023-02-02T20:18:19.327Z,9.40
2023-02-02T20:20:51.480Z,9.40
2023-02-02T20:23:23.787Z,9.50
2023-02-02T20:25:50.492Z,9.50
2023-02-02T20:28:34.304Z,9.40
2023-02-02T20:31:05.608Z,9.30
2023-02-02T20:33:33.352Z,9.40
2023-02-02T20:36:02.633Z,9.40
2023-02-02T20:38:37.495Z,9.30
2023-02-02T20:41:05.927Z,9.40
2023-02-02T20:43:33.012Z,9.30
2023-02-02T20:45:59.774Z,9.30
2023-02-02T20:48:27.691Z,9.40
2023-02-02T20:50:54.297Z,9.40
2023-02-02T20:53:21.707Z,9.40
2023-02-02T20:55:48.297Z,9.40
2023-02-02T20:58:14.975Z,9.40
2023-02-02T21:00:41.588Z,9.40
2023-02-02T21:03:08.322Z,9.40
2023-02-02T21:05:34.902Z,9.40
2023-02-02T21:08:01.590Z,9.40
2023-02-02T21:10:28.623Z,9.40
2023-02-02T21:12:55.478Z,9.30
2023-02-02T21:15:22.162Z,9.30
2023-02-02T21:17:48.773Z,9.30
2023-02-02T21:20:15.569Z,9.30
2023-02-02T21:22:42.400Z,9.30
2023-02-02T21:25:09.725Z,9.30
2023-02-02T21:27:37.419Z,9.40
2023-02-02T21:30:04.848Z,9.30
2023-02-02T21:32:33.167Z,9.30
2023-02-02T21:34:59.787Z,9.30
2023-02-02T21:37:26.640Z,9.30
2023-02-02T21:39:57.936Z,9.30
2023-02-02T21:42:24.744Z,9.30
2023-02-02T21:44:56.384Z,9.30
2023-02-02T21:47:37.399Z,9.30
2023-02-02T21:50:16.492Z,9.30
2023-02-02T21:52:43.725Z,9.20
2023-02-02T21:55:34.682Z,9.20
2023-02-02T21:58:17.929Z,9.20
2023-02-02T22:00:44.966Z,9.20
2023-02-02T22:03:33.210Z,9.20
2023-02-02T22:06:13.766Z,9.20
2023-02-02T22:08:40.600Z,9.20
2023-02-02T22:11:29.687Z,9.20
2023-02-02T22:14:12.763Z,9.20
2023-02-02T22:16:43.679Z,9.20
2023-02-02T22:19:27.429Z,9.20
2023-02-02T22:22:02.853Z,9.10
2023-02-02T22:24:29.465Z,9.10
2023-02-02T22:26:58.771Z,9.10
2023-02-02T22:29:25.621Z,9.20
2023-02-02T22:31:52.347Z,9.20
2023-02-02T22:34:18.971Z,9.20
2023-02-02T22:36:45.657Z,9.20
2023-02-02T22:39:12.238Z,9.20
2023-02-02T22:41:38.838Z,9.20
2023-02-02T22:44:06.093Z,9.20
2023-02-02T22:46:32.777Z,9.20
2023-02-02T22:48:59.465Z,9.10
2023-02-02T22:51:26.084Z,9.10
2023-02-02T22:53:52.768Z,9.20
2023-02-02T22:56:19.416Z,9.10
2023-02-02T22:58:46.026Z,9.10
2023-02-02T23:01:13.720Z,9.10
2023-02-02T23:03:40.388Z,9.10
2023-02-02T23:06:07.039Z,9.20
2023-02-02T23:08:34.615Z,9.10
2023-02-02T23:11:01.456Z,9.10
2023-02-02T23:13:28.064Z,9.20
2023-02-02T23:15:56.747Z,9.10
2023-02-02T23:18:23.440Z,9.20
2023-02-02T23:20:50.537Z,9.20
2023-02-02T23:23:17.244Z,9.20
2023-02-02T23:25:43.841Z,9.10
2023-02-02T23:28:10.694Z,9.20
2023-02-02T23:30:38.023Z,9.20
2023-02-02T23:33:04.704Z,9.10
2023-02-02T23:35:31.393Z,9.10
2023-02-02T23:37:57.992Z,9.10
2023-02-02T23:40:24.980Z,9.10
2023-02-02T23:42:51.762Z,9.10
2023-02-02T23:45:18.414Z,9.10
2023-02-02T23:47:45.291Z,9.10
2023-02-02T23:50:12.395Z,9.00
2023-02-02T23:52:39.432Z,9.00
2023-02-02T23:55:07.321Z,9.10
2023-02-02T23:57:36.546Z,9.10
